createdAt,value
2023-02-21T00:00:59.581Z,2.55
2023-02-21T00:03:47.271Z,2.97
2023-02-21T00:06:33.050Z,2.33
2023-02-21T00:09:19.024Z,2.88
2023-02-21T00:12:06.231Z,4.95
2023-02-21T00:14:51.768Z,3.70
2023-02-21T00:17:37.610Z,3.30
2023-02-21T00:20:23.462Z,2.88
2023-02-21T00:23:08.661Z,3.15
2023-02-21T00:25:54.052Z,3.25
2023-02-21T00:28:40.977Z,3.95
2023-02-21T00:31:27.512Z,2.90
2023-02-21T00:34:12.816Z,3.10
2023-02-21T00:36:59.386Z,4.50
2023-02-21T00:39:44.761Z,3.67
2023-02-21T00:42:30.479Z,3.10
2023-02-21T00:45:18.395Z,4.10
2023-02-21T00:48:04.179Z,3.60
2023-02-21T00:50:50.983Z,3.90
2023-02-21T00:53:36.692Z,3.70
2023-02-21T00:56:22.896Z,2.72
2023-02-21T00:59:08.660Z,2.60
2023-02-21T01:01:55.720Z,2.80
2023-02-21T01:04:42.129Z,3.53
2023-02-21T01:07:27.372Z,5.13
2023-02-21T01:10:12.978Z,3.22
2023-02-21T01:12:58.716Z,4.93
2023-02-21T01:15:44.275Z,4.65
2023-02-21T01:18:31.320Z,2.83
2023-02-21T01:21:17.001Z,1.98
2023-02-21T01:24:02.296Z,3.50
2023-02-21T01:26:47.756Z,2.67
2023-02-21T01:29:32.930Z,2.70
2023-02-21T01:32:19.296Z,3.92
2023-02-21T01:35:06.180Z,3.50
2023-02-21T01:37:51.845Z,5.53
2023-02-21T01:40:37.635Z,3.05
2023-02-21T01:43:33.565Z,2.97
2023-02-21T01:46:19.669Z,4.20
2023-02-21T01:49:07.632Z,3.50
2023-02-21T01:51:57.150Z,3.28
2023-02-21T01:54:44.872Z,2.88
2023-02-21T01:57:31.693Z,3.67
2023-02-21T02:00:20.129Z,3.60
2023-02-21T02:03:12.055Z,4.10
2023-02-21T02:05:58.836Z,2.92
2023-02-21T02:08:48.982Z,5.22
2023-02-21T02:11:45.532Z,3.45
2023-02-21T02:14:29.188Z,4.32
2023-02-21T02:17:05.282Z,3.45
2023-02-21T02:20:04.185Z,3.10
2023-02-21T02:23:25.085Z,4.15
2023-02-21T02:26:31.865Z,2.53
2023-02-21T02:29:17.448Z,3.08
2023-02-21T02:32:11.033Z,3.72
2023-02-21T02:34:51.496Z,3.20
2023-02-21T02:37:25.151Z,5.80
2023-02-21T02:40:00.259Z,4.90
2023-02-21T02:42:40.276Z,3.90
2023-02-21T02:45:16.456Z,3.58
2023-02-21T02:47:48.175Z,3.17
2023-02-21T02:50:18.397Z,2.30
2023-02-21T02:52:56.019Z,3.88
2023-02-21T02:55:38.750Z,2.50
2023-02-21T02:58:07.212Z,3.03
2023-02-21T03:00:38.983Z,3.05
2023-02-21T03:03:35.271Z,2.85
2023-02-21T03:06:21.258Z,4.88
2023-02-21T03:08:54.966Z,5.45
2023-02-21T03:11:26.478Z,6.32
2023-02-21T03:14:00.495Z,2.85
2023-02-21T03:16:34.512Z,2.28
2023-02-21T03:19:05.990Z,3.20
2023-02-21T03:21:41.954Z,4.00
2023-02-21T03:24:14.105Z,3.38
2023-02-21T03:26:45.456Z,3.67
2023-02-21T03:29:44.108Z,4.88
2023-02-21T03:32:14.660Z,5.53
2023-02-21T03:34:44.248Z,3.55
2023-02-21T03:37:23.129Z,2.80
2023-02-21T03:39:51.265Z,2.70
2023-02-21T03:42:19.423Z,4.65
2023-02-21T03:44:48.765Z,3.33
2023-02-21T03:47:17.304Z,4.80
2023-02-21T03:49:45.489Z,3.83
2023-02-21T03:52:14.194Z,3.35
2023-02-21T03:54:43.932Z,2.65
2023-02-21T03:57:16.807Z,3.25
2023-02-21T03:59:47.171Z,2.75
2023-02-21T04:02:15.636Z,2.45
2023-02-21T04:04:45.357Z,3.45
2023-02-21T04:07:17.455Z,2.70
2023-02-21T04:09:47.225Z,3.30
2023-02-21T04:12:21.148Z,2.33
2023-02-21T04:14:52.237Z,3.20
2023-02-21T04:17:20.194Z,3.22
2023-02-21T04:19:49.008Z,2.03
2023-02-21T04:22:17.269Z,3.58
2023-02-21T04:24:48.158Z,3.45
2023-02-21T04:27:17.700Z,3.10
2023-02-21T04:29:51.929Z,5.07
2023-02-21T04:32:20.168Z,4.18
2023-02-21T04:34:48.178Z,4.05
2023-02-21T04:37:16.359Z,2.90
2023-02-21T04:39:46.625Z,5.30
2023-02-21T04:42:17.188Z,3.05
2023-02-21T04:44:58.276Z,3.05
2023-02-21T04:47:27.783Z,4.18
2023-02-21T04:49:55.744Z,3.28
2023-02-21T04:52:23.894Z,4.30
2023-02-21T04:54:53.225Z,2.75
2023-02-21T04:57:23.451Z,2.33
2023-02-21T04:59:57.527Z,4.05
2023-02-21T05:02:25.566Z,4.72
2023-02-21T05:04:53.764Z,3.63
2023-02-21T05:07:21.765Z,4.00
2023-02-21T05:09:49.737Z,3.08
2023-02-21T05:12:19.117Z,4.47
2023-02-21T05:14:47.110Z,2.63
2023-02-21T05:17:15.038Z,3.90
2023-02-21T05:19:43.218Z,5.18
2023-02-21T05:22:11.183Z,5.28
2023-02-21T05:24:43.314Z,4.63
2023-02-21T05:27:15.592Z,4.20
2023-02-21T05:29:48.517Z,4.40
2023-02-21T05:32:16.885Z,2.70
2023-02-21T05:34:46.874Z,5.30
2023-02-21T05:37:15.166Z,3.67
2023-02-21T05:39:43.163Z,4.03
2023-02-21T05:42:11.094Z,4.43
2023-02-21T05:44:39.189Z,3.15
2023-02-21T05:47:08.719Z,2.63
2023-02-21T05:49:36.697Z,5.30
2023-02-21T05:52:04.985Z,2.28
2023-02-21T05:54:32.956Z,5.80
2023-02-21T05:57:00.895Z,3.28
2023-02-21T05:59:29.093Z,2.95
2023-02-21T06:01:57.582Z,2.80
2023-02-21T06:04:27.343Z,3.20
2023-02-21T06:06:55.660Z,3.20
2023-02-21T06:09:23.639Z,3.22
2023-02-21T06:11:51.596Z,6.68
2023-02-21T06:14:21.960Z,2.13
2023-02-21T06:16:50.078Z,2.72
2023-02-21T06:19:19.071Z,1.73
2023-02-21T06:21:49.398Z,8.82
2023-02-21T06:24:17.420Z,5.72
2023-02-21T06:26:45.422Z,1.92
2023-02-21T06:29:13.394Z,2.45
2023-02-21T06:31:41.396Z,2.30
2023-02-21T06:34:09.945Z,3.50
2023-02-21T06:36:39.194Z,2.38
2023-02-21T06:39:09.062Z,3.13
2023-02-21T06:41:37.042Z,5.88
2023-02-21T06:44:05.178Z,2.35
2023-02-21T06:46:33.238Z,2.95
2023-02-21T06:49:01.220Z,3.00
2023-02-21T06:51:30.216Z,3.33
2023-02-21T06:54:00.486Z,4.00
2023-02-21T06:56:29.844Z,4.35
2023-02-21T06:58:58.357Z,5.60
2023-02-21T07:01:28.047Z,4.93
2023-02-21T07:03:56.524Z,6.07
2023-02-21T07:06:27.938Z,4.53
2023-02-21T07:08:57.509Z,5.90
2023-02-21T07:11:25.577Z,2.83
2023-02-21T07:13:56.780Z,6.22
2023-02-21T07:16:24.808Z,4.38
2023-02-21T07:18:52.929Z,3.40
2023-02-21T07:21:22.855Z,3.83
2023-02-21T07:23:50.825Z,3.95
2023-02-21T07:26:18.896Z,4.82
2023-02-21T07:28:49.357Z,2.53
2023-02-21T07:31:20.782Z,5.03
2023-02-21T07:33:49.079Z,6.60
2023-02-21T07:36:17.347Z,2.88
2023-02-21T07:38:45.374Z,3.67
2023-02-21T07:41:16.195Z,3.55
2023-02-21T07:43:44.546Z,3.13
2023-02-21T07:46:13.311Z,3.63
2023-02-21T07:48:42.761Z,4.07
2023-02-21T07:51:11.504Z,3.33
2023-02-21T07:53:39.709Z,3.45
2023-02-21T07:56:07.915Z,3.70
2023-02-21T07:58:37.591Z,5.97
2023-02-21T08:01:05.970Z,3.83
2023-02-21T08:03:34.343Z,3.05
2023-02-21T08:06:03.603Z,3.45
2023-02-21T08:08:31.525Z,2.88
2023-02-21T08:10:59.494Z,3.50
2023-02-21T08:13:27.517Z,2.90
2023-02-21T08:15:55.495Z,3.47
2023-02-21T08:18:24.981Z,4.75
2023-02-21T08:20:53.406Z,2.95
2023-02-21T08:23:23.124Z,1.92
2023-02-21T08:25:51.460Z,7.45
2023-02-21T08:28:19.614Z,3.83
2023-02-21T08:30:47.639Z,3.88
2023-02-21T08:33:15.678Z,3.38
2023-02-21T08:35:43.667Z,5.13
2023-02-21T08:38:11.662Z,2.28
2023-02-21T08:40:40.993Z,4.57
2023-02-21T08:43:09.021Z,2.58
2023-02-21T08:45:36.974Z,3.47
2023-02-21T08:48:05.239Z,2.85
2023-02-21T08:50:34.644Z,4.10
2023-02-21T08:53:02.918Z,3.30
2023-02-21T08:55:30.909Z,4.40
2023-02-21T08:58:00.207Z,4.50
2023-02-21T09:00:28.769Z,2.30
2023-02-21T09:02:57.547Z,2.10
2023-02-21T09:05:28.019Z,1.90
2023-02-21T09:07:59.099Z,1.98
2023-02-21T09:10:27.958Z,3.55
2023-02-21T09:12:55.951Z,3.05
2023-02-21T09:15:25.306Z,2.58
2023-02-21T09:17:54.556Z,2.70
2023-02-21T09:20:24.355Z,5.18
2023-02-21T09:22:54.530Z,2.60
2023-02-21T09:25:25.052Z,5.15
2023-02-21T09:27:54.425Z,2.95
2023-02-21T09:30:27.128Z,4.72
2023-02-21T09:32:57.120Z,3.17
2023-02-21T09:35:25.188Z,2.60
2023-02-21T09:37:54.412Z,1.67
2023-02-21T09:40:33.450Z,2.65
2023-02-21T09:43:02.303Z,2.97
2023-02-21T09:45:34.285Z,2.97
2023-02-21T09:48:07.575Z,3.25
2023-02-21T09:53:07.521Z,4.47
2023-02-21T09:55:38.583Z,3.03
2023-02-21T09:58:12.798Z,2.60
2023-02-21T10:00:45.465Z,3.03
2023-02-21T10:03:32.687Z,1.75
2023-02-21T10:06:09.124Z,2.75
2023-02-21T10:08:45.511Z,4.50
2023-02-21T10:11:27.738Z,2.75
2023-02-21T10:14:00.297Z,2.13
2023-02-21T10:16:34.077Z,1.77
2023-02-21T10:19:11.566Z,2.47
2023-02-21T10:21:42.447Z,1.33
2023-02-21T10:24:14.278Z,1.88
2023-02-21T10:26:50.140Z,2.33
2023-02-21T10:29:23.829Z,1.60
2023-02-21T10:31:57.846Z,2.17
2023-02-21T10:34:29.178Z,5.63
2023-02-21T10:37:00.161Z,3.03
2023-02-21T10:39:36.054Z,2.67
2023-02-21T10:42:05.144Z,1.77
2023-02-21T10:44:36.829Z,1.25
2023-02-21T10:47:15.267Z,2.67
2023-02-21T10:49:51.975Z,2.50
2023-02-21T10:52:22.085Z,4.93
2023-02-21T10:55:02.608Z,1.60
2023-02-21T10:57:32.651Z,6.03
2023-02-21T11:00:10.031Z,4.00
2023-02-21T11:02:42.202Z,2.28
2023-02-21T11:05:14.060Z,4.00
2023-02-21T11:07:43.514Z,2.53
2023-02-21T11:10:33.709Z,1.95
2023-02-21T11:13:15.252Z,1.40
2023-02-21T11:15:43.788Z,3.80
2023-02-21T11:18:19.331Z,2.88
2023-02-21T11:20:48.428Z,2.53
2023-02-21T11:23:25.171Z,1.85
2023-02-21T11:26:00.435Z,1.88
2023-02-21T11:28:28.473Z,1.48
2023-02-21T11:31:10.063Z,3.38
2023-02-21T11:33:42.786Z,5.30
2023-02-21T11:36:14.745Z,4.05
2023-02-21T11:38:46.105Z,1.85
2023-02-21T11:41:22.209Z,1.58
2023-02-21T11:43:51.099Z,1.35
2023-02-21T11:46:33.448Z,2.80
2023-02-21T11:49:07.476Z,1.92
2023-02-21T11:51:42.808Z,3.00
2023-02-21T11:54:10.992Z,2.50
2023-02-21T11:56:51.884Z,0.95
2023-02-21T11:59:35.719Z,2.25
2023-02-21T12:02:24.786Z,1.77
2023-02-21T12:05:09.170Z,1.20
2023-02-21T12:07:46.762Z,1.70
2023-02-21T12:10:32.108Z,2.40
2023-02-21T12:13:08.557Z,2.40
2023-02-21T12:15:48.166Z,2.42
2023-02-21T12:18:42.347Z,1.85
2023-02-21T12:21:34.647Z,1.75
2023-02-21T12:24:19.544Z,1.30
2023-02-21T12:26:52.715Z,1.30
2023-02-21T12:29:42.009Z,2.60
2023-02-21T12:32:27.621Z,4.72
2023-02-21T12:35:31.197Z,2.00
2023-02-21T12:38:08.190Z,1.45
2023-02-21T12:40:44.346Z,1.50
2023-02-21T12:43:27.082Z,1.83
2023-02-21T12:46:06.570Z,2.50
2023-02-21T12:48:41.742Z,1.17
2023-02-21T12:51:14.036Z,1.92
2023-02-21T12:53:48.816Z,2.20
2023-02-21T12:56:22.054Z,3.45
2023-02-21T12:58:53.669Z,3.90
2023-02-21T13:01:26.468Z,4.18
2023-02-21T13:04:06.863Z,1.83
2023-02-21T13:06:38.711Z,1.95
2023-02-21T13:09:21.791Z,1.33
2023-02-21T13:12:00.509Z,2.05
2023-02-21T13:14:35.556Z,1.80
2023-02-21T13:17:03.881Z,2.65
2023-02-21T13:19:42.032Z,1.67
2023-02-21T13:22:47.790Z,1.70
2023-02-21T13:25:46.666Z,3.60
2023-02-21T13:28:19.065Z,1.83
2023-02-21T13:30:51.749Z,0.95
2023-02-21T13:33:29.938Z,3.08
2023-02-21T13:36:00.603Z,3.35
2023-02-21T13:38:32.958Z,2.45
2023-02-21T13:41:09.923Z,0.88
2023-02-21T13:43:46.070Z,2.95
2023-02-21T13:46:47.499Z,1.65
2023-02-21T13:49:50.888Z,2.58
2023-02-21T13:52:52.411Z,0.90
2023-02-21T13:55:28.260Z,2.10
2023-02-21T13:58:31.863Z,1.48
2023-02-21T14:01:17.481Z,2.05
2023-02-21T14:03:46.364Z,2.08
2023-02-21T14:06:35.626Z,1.50
2023-02-21T14:09:11.976Z,4.25
2023-02-21T14:11:47.722Z,2.65
2023-02-21T14:14:30.848Z,2.28
2023-02-21T14:17:03.646Z,5.03
2023-02-21T14:19:37.759Z,1.50
2023-02-21T14:22:14.092Z,1.27
2023-02-21T14:24:45.105Z,1.38
2023-02-21T14:27:40.060Z,2.70
2023-02-21T14:30:31.766Z,3.13
2023-02-21T14:33:19.165Z,1.60
2023-02-21T14:35:53.454Z,2.42
2023-02-21T14:38:24.982Z,2.15
2023-02-21T14:41:04.802Z,1.77
2023-02-21T14:43:54.536Z,1.38
2023-02-21T14:46:56.213Z,2.17
2023-02-21T14:49:51.154Z,1.20
2023-02-21T14:52:46.818Z,1.98
2023-02-21T14:55:35.988Z,3.00
2023-02-21T14:58:45.039Z,1.33
2023-02-21T15:01:25.692Z,2.67
2023-02-21T15:04:03.249Z,1.38
2023-02-21T15:06:33.017Z,1.38
2023-02-21T15:09:13.650Z,1.00
2023-02-21T15:11:42.259Z,1.70
2023-02-21T15:14:23.019Z,0.88
2023-02-21T15:16:57.092Z,2.42
2023-02-21T15:19:30.203Z,1.90
2023-02-21T15:22:13.468Z,2.00
2023-02-21T15:24:42.574Z,1.60
2023-02-21T15:27:11.735Z,1.83
2023-02-21T15:29:39.905Z,1.88
2023-02-21T15:32:08.457Z,1.92
2023-02-21T15:34:42.311Z,2.75
2023-02-21T15:37:29.482Z,1.00
2023-02-21T15:40:00.858Z,3.58
2023-02-21T15:42:30.031Z,1.75
2023-02-21T15:45:01.997Z,1.73
2023-02-21T15:47:31.471Z,0.77
2023-02-21T15:50:06.240Z,3.08
2023-02-21T15:52:38.532Z,1.88
2023-02-21T15:55:27.762Z,1.55
2023-02-21T15:58:04.142Z,1.10
2023-02-21T16:00:34.042Z,3.10
2023-02-21T16:03:27.472Z,1.27
2023-02-21T16:06:09.535Z,1.65
2023-02-21T16:08:39.822Z,2.58
2023-02-21T16:11:07.870Z,0.90
2023-02-21T16:13:38.059Z,2.05
2023-02-21T16:16:07.028Z,2.00
2023-02-21T16:18:35.203Z,1.20
2023-02-21T16:21:08.548Z,0.80
2023-02-21T16:23:39.615Z,1.48
2023-02-21T16:26:27.225Z,3.15
2023-02-21T16:28:58.473Z,1.48
2023-02-21T16:31:28.238Z,1.10
2023-02-21T16:33:56.802Z,2.58
2023-02-21T16:36:28.601Z,2.08
2023-02-21T16:38:57.176Z,4.60
2023-02-21T16:41:26.013Z,3.03
2023-02-21T16:43:53.991Z,1.98
2023-02-21T16:46:29.237Z,5.65
2023-02-21T16:48:58.881Z,1.75
2023-02-21T16:51:33.555Z,1.45
2023-02-21T16:54:01.757Z,5.38
2023-02-21T16:56:30.984Z,2.95
2023-02-21T16:58:59.100Z,2.90
2023-02-21T17:01:30.330Z,2.33
2023-02-21T17:03:58.318Z,3.72
2023-02-21T17:06:29.347Z,2.80
2023-02-21T17:08:58.812Z,5.25
2023-02-21T17:11:27.214Z,6.68
2023-02-21T17:13:55.200Z,5.55
2023-02-21T17:16:23.241Z,4.57
2023-02-21T17:18:51.244Z,4.97
2023-02-21T17:21:19.193Z,3.42
2023-02-21T17:23:48.992Z,9.73
2023-02-21T17:26:18.016Z,5.20
2023-02-21T17:28:46.265Z,5.38
2023-02-21T17:31:18.689Z,4.80
2023-02-21T17:33:46.960Z,5.03
2023-02-21T17:36:17.991Z,7.35
2023-02-21T17:38:46.875Z,6.53
2023-02-21T17:41:16.672Z,8.38
2023-02-21T17:43:45.130Z,6.80
2023-02-21T17:46:14.604Z,7.90
2023-02-21T17:48:43.602Z,6.75
2023-02-21T17:51:17.815Z,6.85
2023-02-21T17:53:45.895Z,5.43
2023-02-21T17:56:17.000Z,8.80
2023-02-21T17:58:46.497Z,5.20
2023-02-21T18:01:19.502Z,6.50
2023-02-21T18:03:48.425Z,5.95
2023-02-21T18:06:17.010Z,6.90
2023-02-21T18:08:47.035Z,6.80
2023-02-21T18:11:17.358Z,7.97
2023-02-21T18:13:47.406Z,4.85
2023-02-21T18:16:15.958Z,10.00
2023-02-21T18:18:44.545Z,4.82
2023-02-21T18:21:13.093Z,9.80
2023-02-21T18:23:44.777Z,6.95
2023-02-21T18:26:13.708Z,4.45
2023-02-21T18:28:41.762Z,7.05
2023-02-21T18:31:11.434Z,5.63
2023-02-21T18:33:39.440Z,6.65
2023-02-21T18:36:10.070Z,6.95
2023-02-21T18:38:40.517Z,6.10
2023-02-21T18:41:13.073Z,6.80
2023-02-21T18:43:43.224Z,6.00
2023-02-21T18:46:14.283Z,5.88
2023-02-21T18:48:43.985Z,6.88
2023-02-21T18:51:13.396Z,8.57
2023-02-21T18:53:44.107Z,6.43
2023-02-21T18:56:17.120Z,7.15
2023-02-21T18:58:45.272Z,9.65
2023-02-21T19:01:18.721Z,10.68
2023-02-21T19:03:47.375Z,6.35
2023-02-21T19:06:18.196Z,10.27
2023-02-21T19:08:47.563Z,10.77
2023-02-21T19:11:16.228Z,8.73
2023-02-21T19:13:47.227Z,7.75
2023-02-21T19:16:18.121Z,12.48
2023-02-21T19:18:49.275Z,11.73
2023-02-21T19:21:19.265Z,13.50
2023-02-21T19:23:47.277Z,12.88
2023-02-21T19:26:15.222Z,17.83
2023-02-21T19:28:43.236Z,12.32
2023-02-21T19:31:14.190Z,12.60
2023-02-21T19:33:44.915Z,9.15
2023-02-21T19:36:13.506Z,12.65
2023-02-21T19:38:41.536Z,11.15
2023-02-21T19:41:10.285Z,11.80
2023-02-21T19:43:38.286Z,6.90
2023-02-21T19:46:08.897Z,9.45
2023-02-21T19:48:37.286Z,8.57
2023-02-21T19:51:06.886Z,7.60
2023-02-21T19:53:34.854Z,7.68
2023-02-21T19:56:03.012Z,6.13
2023-02-21T19:58:31.201Z,7.05
2023-02-21T20:00:59.287Z,5.07
2023-02-21T20:03:27.349Z,4.25
2023-02-21T20:05:56.465Z,11.85
2023-02-21T20:08:25.882Z,6.53
2023-02-21T20:10:53.887Z,9.02
2023-02-21T20:13:21.889Z,5.25
2023-02-21T20:15:52.518Z,3.60
2023-02-21T20:18:20.584Z,5.88
2023-02-21T20:20:49.523Z,6.15
2023-02-21T20:23:18.182Z,5.68
2023-02-21T20:25:49.094Z,5.60
2023-02-21T20:28:17.199Z,5.60
2023-02-21T20:30:45.420Z,6.07
2023-02-21T20:33:15.149Z,11.68
2023-02-21T20:35:43.887Z,9.20
2023-02-21T20:38:13.006Z,6.63
2023-02-21T20:40:40.982Z,6.07
2023-02-21T20:43:10.711Z,7.70
2023-02-21T20:45:38.877Z,7.43
2023-02-21T20:48:11.068Z,4.30
2023-02-21T20:50:41.819Z,5.88
2023-02-21T20:53:11.721Z,5.82
2023-02-21T20:55:40.321Z,8.18
2023-02-21T20:58:10.606Z,4.00
2023-02-21T21:00:38.883Z,5.00
2023-02-21T21:03:09.345Z,4.68
2023-02-21T21:05:37.635Z,7.55
2023-02-21T21:08:07.283Z,4.30
2023-02-21T21:10:35.470Z,3.88
2023-02-21T21:13:03.434Z,5.97
2023-02-21T21:15:32.876Z,5.53
2023-02-21T21:18:01.251Z,5.18
2023-02-21T21:20:30.862Z,4.65
2023-02-21T21:22:58.900Z,6.00
2023-02-21T21:25:26.941Z,6.25
2023-02-21T21:27:55.056Z,5.82
2023-02-21T21:30:24.381Z,6.38
2023-02-21T21:32:54.640Z,7.57
2023-02-21T21:35:22.628Z,6.65
2023-02-21T21:37:51.214Z,10.57
2023-02-21T21:40:24.099Z,6.15
2023-02-21T21:42:53.683Z,3.15
2023-02-21T21:45:25.022Z,5.30
2023-02-21T21:47:58.465Z,6.25
2023-02-21T21:50:26.739Z,8.15
2023-02-21T21:52:58.107Z,6.90
2023-02-21T21:55:28.309Z,8.70
2023-02-21T21:57:58.697Z,7.07
2023-02-21T22:00:28.566Z,10.60
2023-02-21T22:03:01.879Z,7.60
2023-02-21T22:05:31.871Z,5.57
2023-02-21T22:08:00.927Z,6.75
2023-02-21T22:10:29.622Z,5.40
2023-02-21T22:12:59.966Z,7.43
2023-02-21T22:15:29.896Z,5.32
2023-02-21T22:18:03.749Z,7.20
2023-02-21T22:20:31.846Z,6.50
2023-02-21T22:23:00.130Z,5.82
2023-02-21T22:25:30.755Z,9.98
2023-02-21T22:28:00.483Z,4.88
2023-02-21T22:30:28.653Z,8.35
2023-02-21T22:32:56.696Z,8.38
2023-02-21T22:35:28.434Z,7.30
2023-02-21T22:37:58.782Z,5.43
2023-02-21T22:40:29.788Z,6.18
2023-02-21T22:43:00.273Z,8.45
2023-02-21T22:45:33.122Z,5.80
2023-02-21T22:48:04.420Z,5.93
2023-02-21T22:50:36.939Z,6.93
2023-02-21T22:53:08.294Z,6.18
2023-02-21T22:55:38.033Z,6.15
2023-02-21T22:58:09.228Z,6.22
2023-02-21T23:00:38.753Z,5.40
2023-02-21T23:03:12.843Z,5.68
2023-02-21T23:05:44.602Z,6.57
2023-02-21T23:08:14.297Z,7.00
2023-02-21T23:10:42.961Z,7.95
2023-02-21T23:13:14.561Z,6.45
2023-02-21T23:15:43.667Z,5.93
2023-02-21T23:18:18.105Z,6.95
2023-02-21T23:20:47.610Z,6.90
2023-02-21T23:23:16.081Z,5.28
2023-02-21T23:25:44.199Z,7.38
2023-02-21T23:28:15.349Z,8.13
2023-02-21T23:30:46.255Z,5.88
2023-02-21T23:33:16.134Z,4.97
2023-02-21T23:35:45.221Z,4.70
2023-02-21T23:38:16.523Z,5.13
2023-02-21T23:40:45.578Z,5.90
2023-02-21T23:43:14.861Z,5.40
2023-02-21T23:45:43.520Z,5.15
2023-02-21T23:48:15.685Z,6.97
2023-02-21T23:50:47.450Z,7.25
2023-02-21T23:53:18.729Z,5.95
2023-02-21T23:55:47.262Z,9.15
2023-02-21T23:58:19.044Z,5.40
